createdAt,value
2017-07-11T00:00:26.167Z,0
2017-07-11T00:01:27.531Z,0
2017-07-11T00:02:28.908Z,0
2017-07-11T00:03:30.262Z,0
2017-07-11T00:04:31.634Z,0
2017-07-11T00:05:33.021Z,0
2017-07-11T00:06:34.389Z,0
2017-07-11T00:07:35.766Z,0
2017-07-11T00:08:37.124Z,0
2017-07-11T00:09:38.486Z,0
2017-07-11T00:10:39.855Z,0
2017-07-11T00:11:41.241Z,0
2017-07-11T00:12:42.606Z,0
2017-07-11T00:13:43.985Z,0
2017-07-11T00:14:45.346Z,0
2017-07-11T00:15:46.710Z,0
2017-07-11T00:16:48.075Z,0
2017-07-11T00:17:49.436Z,0
2017-07-11T00:18:50.813Z,0
2017-07-11T00:19:52.178Z,0
2017-07-11T00:20:53.547Z,0
2017-07-11T00:21:54.920Z,0
2017-07-11T00:22:56.288Z,0
2017-07-11T00:23:57.652Z,0
2017-07-11T00:24:59.016Z,0
2017-07-11T00:26:00.384Z,0
2017-07-11T00:27:01.759Z,0
2017-07-11T00:28:03.136Z,0
2017-07-11T00:29:04.509Z,0
2017-07-11T00:30:05.877Z,0
2017-07-11T00:31:07.247Z,0
2017-07-11T00:32:08.613Z,0
2017-07-11T00:33:09.982Z,0
2017-07-11T00:34:11.349Z,0
2017-07-11T00:35:12.720Z,0
2017-07-11T00:36:14.092Z,0
2017-07-11T00:37:15.461Z,0
2017-07-11T00:38:16.832Z,0
2017-07-11T00:39:18.195Z,0
2017-07-11T00:40:19.566Z,0
2017-07-11T00:41:20.930Z,0
2017-07-11T00:42:22.297Z,0
2017-07-11T00:43:23.664Z,0
2017-07-11T00:44:25.031Z,0
2017-07-11T00:45:26.402Z,0
2017-07-11T00:46:27.770Z,0
2017-07-11T00:47:29.162Z,0
2017-07-11T00:48:30.525Z,0
2017-07-11T00:49:31.897Z,0
2017-07-11T00:50:33.298Z,0
2017-07-11T00:51:34.675Z,0
2017-07-11T00:52:36.039Z,0
2017-07-11T00:53:37.424Z,0
2017-07-11T00:54:38.793Z,0
2017-07-11T00:55:40.158Z,0
2017-07-11T00:56:41.527Z,0
2017-07-11T00:57:42.889Z,0
2017-07-11T00:58:44.259Z,0
2017-07-11T00:59:45.645Z,0
2017-07-11T01:00:47.019Z,0
2017-07-11T01:01:48.390Z,0
2017-07-11T01:02:49.754Z,0
2017-07-11T01:03:51.120Z,0
2017-07-11T01:04:52.534Z,0
2017-07-11T01:05:53.901Z,0
2017-07-11T01:06:55.262Z,0
2017-07-11T01:07:56.646Z,0
2017-07-11T01:08:58.001Z,0
2017-07-11T01:09:59.364Z,0
2017-07-11T01:11:00.734Z,0
2017-07-11T01:12:02.105Z,0
2017-07-11T01:13:03.467Z,0
2017-07-11T01:14:04.834Z,0
2017-07-11T01:15:06.198Z,0
2017-07-11T01:16:07.565Z,0
2017-07-11T01:17:08.926Z,0
2017-07-11T01:18:10.297Z,0
2017-07-11T01:19:11.669Z,0
2017-07-11T01:20:13.030Z,0
2017-07-11T01:21:14.399Z,0
2017-07-11T01:22:15.770Z,0
2017-07-11T01:23:17.133Z,0
2017-07-11T01:24:18.505Z,0
2017-07-11T01:25:19.875Z,0
2017-07-11T01:26:21.239Z,0
2017-07-11T01:27:22.603Z,0
2017-07-11T01:28:23.971Z,0
2017-07-11T01:29:25.349Z,0
2017-07-11T01:30:26.716Z,0
2017-07-11T01:31:28.093Z,0
2017-07-11T01:32:29.458Z,0
2017-07-11T01:33:30.826Z,0
2017-07-11T01:34:32.192Z,0
2017-07-11T01:35:33.572Z,0
2017-07-11T01:36:34.941Z,0
2017-07-11T01:37:36.312Z,0
2017-07-11T01:38:37.684Z,0
2017-07-11T01:39:39.049Z,0
2017-07-11T01:40:40.414Z,0
2017-07-11T01:41:41.782Z,0
2017-07-11T01:42:43.148Z,0
2017-07-11T01:43:44.530Z,0
2017-07-11T01:44:45.896Z,0
2017-07-11T01:45:47.264Z,0
2017-07-11T01:46:48.635Z,0
2017-07-11T01:47:50.043Z,0
2017-07-11T01:48:51.406Z,0
2017-07-11T01:49:52.770Z,0
2017-07-11T01:50:54.136Z,0
2017-07-11T01:51:55.509Z,0
2017-07-11T01:52:56.877Z,0
2017-07-11T01:53:58.257Z,0
2017-07-11T01:54:59.622Z,0
2017-07-11T01:56:00.983Z,0
2017-07-11T01:57:02.346Z,0
2017-07-11T01:58:03.711Z,0
2017-07-11T01:59:05.083Z,0
2017-07-11T02:00:06.455Z,0
2017-07-11T02:01:07.814Z,0
2017-07-11T02:02:09.182Z,0
2017-07-11T02:03:10.546Z,0
2017-07-11T02:04:11.917Z,0
2017-07-11T02:05:13.278Z,0
2017-07-11T02:06:14.645Z,0
2017-07-11T02:07:16.025Z,0
2017-07-11T02:08:17.389Z,0
2017-07-11T02:09:18.759Z,0
2017-07-11T02:10:20.126Z,0
2017-07-11T02:11:21.492Z,0
2017-07-11T02:12:22.860Z,0
2017-07-11T02:13:24.223Z,0
2017-07-11T02:14:25.590Z,0
2017-07-11T02:15:26.951Z,0
2017-07-11T02:16:28.314Z,0
2017-07-11T02:17:29.689Z,0
2017-07-11T02:18:31.051Z,0
2017-07-11T02:19:32.418Z,0
2017-07-11T02:20:33.793Z,0
2017-07-11T02:21:35.162Z,0
2017-07-11T02:22:36.531Z,0
2017-07-11T02:23:37.901Z,0
2017-07-11T02:24:39.270Z,0
2017-07-11T02:25:40.637Z,0
2017-07-11T02:26:42.004Z,0
2017-07-11T02:27:43.369Z,0
2017-07-11T02:28:44.732Z,0
2017-07-11T02:29:46.098Z,0
2017-07-11T02:30:47.469Z,0
2017-07-11T02:31:48.847Z,0
2017-07-11T02:32:50.198Z,0
2017-07-11T02:33:51.566Z,0
2017-07-11T02:34:52.933Z,0
2017-07-11T02:35:54.357Z,0
2017-07-11T02:36:55.666Z,0
2017-07-11T02:37:57.032Z,0
2017-07-11T02:38:58.399Z,0
2017-07-11T02:39:59.770Z,0
2017-07-11T02:41:01.135Z,0
2017-07-11T02:42:02.502Z,0
2017-07-11T02:43:03.874Z,0
2017-07-11T02:44:05.239Z,0
2017-07-11T02:45:06.613Z,0
2017-07-11T02:46:07.974Z,0
2017-07-11T02:47:09.345Z,0
2017-07-11T02:48:10.706Z,0
2017-07-11T02:49:12.072Z,0
2017-07-11T02:50:13.443Z,0
2017-07-11T02:51:14.811Z,0
2017-07-11T02:52:16.180Z,0
2017-07-11T02:53:17.551Z,0
2017-07-11T02:54:18.916Z,0
2017-07-11T02:55:20.285Z,0
2017-07-11T02:56:21.655Z,0
2017-07-11T02:57:23.016Z,0
2017-07-11T02:58:24.382Z,0
2017-07-11T02:59:25.767Z,0
2017-07-11T03:00:27.135Z,0
2017-07-11T03:01:28.498Z,0
2017-07-11T03:02:29.871Z,0
2017-07-11T03:03:31.243Z,0
2017-07-11T03:04:32.610Z,0
2017-07-11T03:05:33.984Z,0
2017-07-11T03:06:35.358Z,0
2017-07-11T03:07:36.726Z,0
2017-07-11T03:08:38.095Z,0
2017-07-11T03:09:39.473Z,0
2017-07-11T03:10:40.841Z,0
2017-07-11T03:11:42.208Z,0
2017-07-11T03:12:43.574Z,0
2017-07-11T03:13:44.939Z,0
2017-07-11T03:14:46.304Z,0
2017-07-11T03:15:47.669Z,0
2017-07-11T03:16:49.044Z,0
2017-07-11T03:17:50.414Z,0
2017-07-11T03:18:51.778Z,0
2017-07-11T03:19:53.146Z,0
2017-07-11T03:20:54.517Z,0
2017-07-11T03:21:55.882Z,0
2017-07-11T03:22:57.249Z,0
2017-07-11T03:23:58.614Z,0
2017-07-11T03:24:59.979Z,0
2017-07-11T03:26:01.355Z,4
2017-07-11T03:27:02.743Z,4
2017-07-11T03:28:04.093Z,4
2017-07-11T03:29:05.462Z,4
2017-07-11T03:30:06.823Z,4
2017-07-11T03:31:08.243Z,0
2017-07-11T03:32:09.561Z,0
2017-07-11T03:33:10.931Z,4
2017-07-11T03:34:12.294Z,4
2017-07-11T03:35:13.662Z,4
2017-07-11T03:36:15.023Z,4
2017-07-11T03:37:16.412Z,8
2017-07-11T03:38:17.780Z,4
2017-07-11T03:39:19.141Z,4
2017-07-11T03:40:20.511Z,4
2017-07-11T03:41:21.876Z,8
2017-07-11T03:42:23.245Z,8
2017-07-11T03:43:24.608Z,8
2017-07-11T03:44:25.977Z,8
2017-07-11T03:45:27.341Z,8
2017-07-11T03:46:28.709Z,8
2017-07-11T03:47:30.075Z,12
2017-07-11T03:48:31.442Z,12
2017-07-11T03:49:32.813Z,8
2017-07-11T03:50:34.167Z,12
2017-07-11T03:51:35.530Z,12
2017-07-11T03:52:36.891Z,12
2017-07-11T03:53:38.265Z,12
2017-07-11T03:54:39.632Z,12
2017-07-11T03:55:40.993Z,16
2017-07-11T03:56:42.369Z,16
2017-07-11T03:57:43.735Z,16
2017-07-11T03:58:45.103Z,20
2017-07-11T03:59:46.477Z,20
2017-07-11T04:00:47.855Z,20
2017-07-11T04:01:49.293Z,24
2017-07-11T04:02:50.666Z,24
2017-07-11T04:03:52.050Z,24
2017-07-11T04:04:53.416Z,28
2017-07-11T04:05:54.779Z,28
2017-07-11T04:06:56.144Z,28
2017-07-11T04:07:57.517Z,32
2017-07-11T04:08:58.888Z,32
2017-07-11T04:10:00.251Z,32
2017-07-11T04:11:01.623Z,32
2017-07-11T04:12:02.988Z,32
2017-07-11T04:13:04.355Z,32
2017-07-11T04:14:05.719Z,36
2017-07-11T04:15:07.083Z,36
2017-07-11T04:16:08.452Z,36
2017-07-11T04:17:09.818Z,32
2017-07-11T04:18:11.185Z,40
2017-07-11T04:19:12.551Z,36
2017-07-11T04:20:13.919Z,36
2017-07-11T04:21:15.283Z,36
2017-07-11T04:22:16.649Z,36
2017-07-11T04:23:18.017Z,36
2017-07-11T04:24:19.388Z,32
2017-07-11T04:25:20.760Z,32
2017-07-11T04:26:22.125Z,32
2017-07-11T04:27:23.492Z,32
2017-07-11T04:28:24.870Z,32
2017-07-11T04:29:26.235Z,36
2017-07-11T04:30:27.605Z,36
2017-07-11T04:31:28.975Z,36
2017-07-11T04:32:30.348Z,36
2017-07-11T04:33:31.717Z,32
2017-07-11T04:34:33.083Z,32
2017-07-11T04:35:34.448Z,28
2017-07-11T04:36:35.816Z,28
2017-07-11T04:37:37.188Z,28
2017-07-11T04:38:38.561Z,32
2017-07-11T04:39:39.929Z,32
2017-07-11T04:40:41.296Z,32
2017-07-11T04:41:42.660Z,32
2017-07-11T04:42:44.025Z,32
2017-07-11T04:43:45.393Z,36
2017-07-11T04:44:46.758Z,40
2017-07-11T04:45:48.157Z,40
2017-07-11T04:46:49.524Z,44
2017-07-11T04:47:50.891Z,48
2017-07-11T04:48:52.257Z,52
2017-07-11T04:49:53.623Z,56
2017-07-11T04:50:54.989Z,60
2017-07-11T04:51:56.357Z,56
2017-07-11T04:52:57.725Z,60
2017-07-11T04:53:59.094Z,68
2017-07-11T04:55:00.470Z,68
2017-07-11T04:56:01.838Z,64
2017-07-11T04:57:03.208Z,92
2017-07-11T04:58:04.575Z,80
2017-07-11T04:59:05.947Z,96
2017-07-11T05:00:07.315Z,64
2017-07-11T05:01:08.687Z,64
2017-07-11T05:02:10.052Z,64
2017-07-11T05:03:11.420Z,56
2017-07-11T05:04:12.790Z,52
2017-07-11T05:05:14.155Z,48
2017-07-11T05:06:15.522Z,48
2017-07-11T05:07:16.889Z,44
2017-07-11T05:08:18.254Z,40
2017-07-11T05:09:19.619Z,48
2017-07-11T05:10:20.981Z,48
2017-07-11T05:11:22.348Z,52
2017-07-11T05:12:23.716Z,48
2017-07-11T05:13:25.079Z,44
2017-07-11T05:14:26.453Z,44
2017-07-11T05:15:27.817Z,40
2017-07-11T05:16:29.185Z,40
2017-07-11T05:17:30.550Z,40
2017-07-11T05:18:31.917Z,36
2017-07-11T05:19:33.279Z,32
2017-07-11T05:20:34.649Z,32
2017-07-11T05:21:36.031Z,24
2017-07-11T05:22:37.397Z,20
2017-07-11T05:23:38.766Z,24
2017-07-11T05:24:40.133Z,28
2017-07-11T05:25:41.502Z,24
2017-07-11T05:26:42.869Z,20
2017-07-11T05:27:44.235Z,20
2017-07-11T05:28:45.607Z,20
2017-07-11T05:29:46.975Z,20
2017-07-11T05:30:48.336Z,20
2017-07-11T05:31:49.710Z,20
2017-07-11T05:32:51.075Z,20
2017-07-11T05:33:52.452Z,24
2017-07-11T05:34:53.818Z,28
2017-07-11T05:35:55.200Z,28
2017-07-11T05:36:56.570Z,28
2017-07-11T05:37:57.939Z,28
2017-07-11T05:38:59.333Z,24
2017-07-11T05:40:00.696Z,20
2017-07-11T05:41:02.078Z,16
2017-07-11T05:42:03.440Z,20
2017-07-11T05:43:04.807Z,20
2017-07-11T05:44:06.172Z,16
2017-07-11T05:45:07.549Z,12
2017-07-11T05:46:08.911Z,20
2017-07-11T05:47:10.292Z,24
2017-07-11T05:48:11.659Z,28
2017-07-11T05:49:13.027Z,24
2017-07-11T05:50:14.397Z,24
2017-07-11T05:51:15.766Z,28
2017-07-11T05:52:17.131Z,32
2017-07-11T05:53:18.498Z,32
2017-07-11T05:54:19.867Z,28
2017-07-11T05:55:21.237Z,24
2017-07-11T05:56:22.608Z,20
2017-07-11T05:57:23.987Z,24
2017-07-11T05:58:26.195Z,24
2017-07-11T05:59:27.562Z,16
2017-07-11T06:00:28.931Z,16
2017-07-11T06:01:30.297Z,16
2017-07-11T06:02:31.664Z,16
2017-07-11T06:03:33.033Z,20
2017-07-11T06:04:34.401Z,16
2017-07-11T06:05:35.780Z,16
2017-07-11T06:06:37.136Z,16
2017-07-11T06:07:38.495Z,16
2017-07-11T06:08:39.863Z,20
2017-07-11T06:09:41.231Z,24
2017-07-11T06:10:42.599Z,24
2017-07-11T06:11:43.972Z,28
2017-07-11T06:12:45.336Z,28
2017-07-11T06:13:46.703Z,28
2017-07-11T06:14:48.068Z,28
2017-07-11T06:15:49.449Z,32
2017-07-11T06:16:50.821Z,32
2017-07-11T06:17:52.186Z,32
2017-07-11T06:18:53.558Z,32
2017-07-11T06:19:54.930Z,32
2017-07-11T06:20:56.303Z,32
2017-07-11T06:21:57.668Z,32
2017-07-11T06:22:59.038Z,32
2017-07-11T06:24:00.421Z,28
2017-07-11T06:25:01.788Z,24
2017-07-11T06:26:03.156Z,20
2017-07-11T06:27:04.522Z,20
2017-07-11T06:28:05.889Z,20
2017-07-11T06:29:07.249Z,20
2017-07-11T06:30:08.615Z,20
2017-07-11T06:31:09.977Z,20
2017-07-11T06:32:11.347Z,24
2017-07-11T06:33:12.718Z,28
2017-07-11T06:34:14.083Z,28
2017-07-11T06:35:15.452Z,28
2017-07-11T06:36:16.826Z,24
2017-07-11T06:37:18.183Z,24
2017-07-11T06:38:19.550Z,20
2017-07-11T06:39:20.920Z,24
2017-07-11T06:40:22.297Z,24
2017-07-11T06:41:23.668Z,24
2017-07-11T06:42:25.038Z,20
2017-07-11T06:43:26.406Z,16
2017-07-11T06:44:27.791Z,16
2017-07-11T06:45:29.141Z,16
2017-07-11T06:46:30.506Z,20
2017-07-11T06:47:31.876Z,24
2017-07-11T06:48:33.248Z,32
2017-07-11T06:49:34.617Z,36
2017-07-11T06:50:36.892Z,36
2017-07-11T06:51:38.263Z,40
2017-07-11T06:52:39.646Z,44
2017-07-11T06:53:41.016Z,40
2017-07-11T06:54:42.381Z,36
2017-07-11T06:55:43.751Z,32
2017-07-11T06:56:45.118Z,32
2017-07-11T06:57:46.479Z,36
2017-07-11T06:58:47.853Z,40
2017-07-11T06:59:49.222Z,48
2017-07-11T07:00:50.588Z,52
2017-07-11T07:01:51.954Z,56
2017-07-11T07:02:53.325Z,56
2017-07-11T07:03:54.692Z,56
2017-07-11T07:04:56.072Z,56
2017-07-11T07:05:57.432Z,48
2017-07-11T07:06:58.810Z,40
2017-07-11T07:08:00.195Z,36
2017-07-11T07:09:01.577Z,36
2017-07-11T07:10:02.944Z,32
2017-07-11T07:11:04.327Z,36
2017-07-11T07:12:05.687Z,44
2017-07-11T07:13:07.059Z,44
2017-07-11T07:14:08.428Z,48
2017-07-11T07:15:09.796Z,48
2017-07-11T07:16:11.165Z,52
2017-07-11T07:17:12.538Z,52
2017-07-11T07:18:13.928Z,52
2017-07-11T07:19:15.292Z,48
2017-07-11T07:20:16.677Z,44
2017-07-11T07:21:18.047Z,44
2017-07-11T07:22:19.412Z,44
2017-07-11T07:23:20.788Z,40
2017-07-11T07:24:22.162Z,44
2017-07-11T07:25:23.525Z,52
2017-07-11T07:26:24.893Z,60
2017-07-11T07:27:26.263Z,68
2017-07-11T07:28:27.630Z,68
2017-07-11T07:29:28.996Z,76
2017-07-11T07:30:30.362Z,72
2017-07-11T07:31:31.734Z,72
2017-07-11T07:32:33.104Z,68
2017-07-11T07:33:34.477Z,60
2017-07-11T07:34:35.856Z,56
2017-07-11T07:35:37.227Z,56
2017-07-11T07:36:38.587Z,56
2017-07-11T07:37:39.960Z,56
2017-07-11T07:38:41.340Z,56
2017-07-11T07:39:42.717Z,60
2017-07-11T07:40:44.084Z,60
2017-07-11T07:41:45.462Z,64
2017-07-11T07:42:46.829Z,68
2017-07-11T07:43:48.216Z,68
2017-07-11T07:44:49.698Z,72
2017-07-11T07:45:51.064Z,72
2017-07-11T07:46:52.447Z,72
2017-07-11T07:47:53.803Z,68
2017-07-11T07:48:55.467Z,68
2017-07-11T07:49:56.833Z,68
2017-07-11T07:50:58.202Z,72
2017-07-11T07:51:59.571Z,72
2017-07-11T07:53:00.946Z,72
2017-07-11T07:54:02.310Z,72
2017-07-11T07:55:03.679Z,76
2017-07-11T07:56:05.046Z,76
2017-07-11T07:57:06.416Z,76
2017-07-11T07:58:07.792Z,76
2017-07-11T07:59:09.157Z,72
2017-07-11T08:00:10.526Z,64
2017-07-11T08:01:11.892Z,64
2017-07-11T08:02:13.268Z,60
2017-07-11T08:03:14.636Z,64
2017-07-11T08:04:16.459Z,68
2017-07-11T08:05:17.788Z,68
2017-07-11T08:06:19.172Z,72
2017-07-11T08:07:20.538Z,72
2017-07-11T08:08:21.913Z,68
2017-07-11T08:09:23.276Z,68
2017-07-11T08:10:24.642Z,64
2017-07-11T08:11:26.011Z,68
2017-07-11T08:12:27.378Z,72
2017-07-11T08:13:28.749Z,72
2017-07-11T08:14:30.118Z,76
2017-07-11T08:15:31.488Z,84
2017-07-11T08:16:33.022Z,92
2017-07-11T08:17:34.389Z,92
2017-07-11T08:18:35.758Z,96
2017-07-11T08:19:37.127Z,96
2017-07-11T08:20:38.496Z,104
2017-07-11T08:21:39.864Z,112
2017-07-11T08:22:41.239Z,124
2017-07-11T08:23:42.608Z,136
2017-07-11T08:24:43.987Z,132
2017-07-11T08:25:45.362Z,160
2017-07-11T08:26:46.731Z,148
2017-07-11T08:27:48.097Z,152
2017-07-11T08:28:49.482Z,148
2017-07-11T08:29:50.848Z,144
2017-07-11T08:30:52.220Z,180
2017-07-11T08:31:53.592Z,232
2017-07-11T08:32:54.957Z,236
2017-07-11T08:33:56.327Z,192
2017-07-11T08:34:57.713Z,184
2017-07-11T08:35:59.082Z,212
2017-07-11T08:37:00.451Z,160
2017-07-11T08:38:01.829Z,148
2017-07-11T08:39:03.197Z,152
2017-07-11T08:40:04.564Z,168
2017-07-11T08:41:05.937Z,160
2017-07-11T08:42:07.503Z,160
2017-07-11T08:43:08.881Z,204
2017-07-11T08:44:10.246Z,176
2017-07-11T08:45:11.610Z,164
2017-07-11T08:46:12.982Z,148
2017-07-11T08:47:14.348Z,148
2017-07-11T08:48:15.724Z,180
2017-07-11T08:49:17.094Z,172
2017-07-11T08:50:18.466Z,164
2017-07-11T08:51:19.838Z,148
2017-07-11T08:52:21.205Z,184
2017-07-11T08:53:22.570Z,260
2017-07-11T08:54:23.936Z,180
2017-07-11T08:55:25.304Z,240
2017-07-11T08:56:26.698Z,200
2017-07-11T08:57:28.090Z,168
2017-07-11T08:58:29.439Z,156
2017-07-11T08:59:30.816Z,180
2017-07-11T09:00:32.191Z,160
2017-07-11T09:01:33.563Z,152
2017-07-11T09:02:34.938Z,144
2017-07-11T09:03:36.306Z,196
2017-07-11T09:04:37.683Z,172
2017-07-11T09:05:39.047Z,248
2017-07-11T09:06:40.424Z,264
2017-07-11T09:07:41.792Z,240
2017-07-11T09:08:43.169Z,272
2017-07-11T09:09:44.534Z,244
2017-07-11T09:10:45.905Z,148
2017-07-11T09:11:47.273Z,236
2017-07-11T09:12:48.650Z,232
2017-07-11T09:13:50.032Z,200
2017-07-11T09:14:51.400Z,204
2017-07-11T09:15:52.772Z,208
2017-07-11T09:16:54.144Z,228
2017-07-11T09:17:55.514Z,244
2017-07-11T09:18:56.884Z,232
2017-07-11T09:19:58.252Z,248
2017-07-11T09:20:59.618Z,240
2017-07-11T09:22:00.984Z,240
2017-07-11T09:23:02.354Z,248
2017-07-11T09:24:03.723Z,236
2017-07-11T09:25:05.097Z,224
2017-07-11T09:26:06.470Z,224
2017-07-11T09:27:07.844Z,140
2017-07-11T09:28:09.217Z,216
2017-07-11T09:29:10.585Z,252
2017-07-11T09:30:11.957Z,260
2017-07-11T09:31:13.325Z,248
2017-07-11T09:32:14.697Z,268
2017-07-11T09:33:16.068Z,268
2017-07-11T09:34:17.435Z,184
2017-07-11T09:35:18.810Z,152
2017-07-11T09:36:20.181Z,256
2017-07-11T09:37:21.549Z,256
2017-07-11T09:38:22.928Z,260
2017-07-11T09:39:24.303Z,260
2017-07-11T09:40:25.682Z,252
2017-07-11T09:41:27.051Z,240
2017-07-11T09:42:28.421Z,252
2017-07-11T09:43:29.800Z,264
2017-07-11T09:44:31.198Z,260
2017-07-11T09:45:32.578Z,252
2017-07-11T09:46:33.957Z,236
2017-07-11T09:47:35.324Z,232
2017-07-11T09:48:36.694Z,236
2017-07-11T09:49:38.059Z,240
2017-07-11T09:50:39.431Z,244
2017-07-11T09:51:40.802Z,252
2017-07-11T09:52:42.180Z,260
2017-07-11T09:53:43.549Z,256
2017-07-11T09:54:44.923Z,256
2017-07-11T09:55:46.295Z,240
2017-07-11T09:56:47.663Z,188
2017-07-11T09:57:49.043Z,204
2017-07-11T09:58:50.416Z,220
2017-07-11T09:59:51.787Z,244
2017-07-11T10:00:53.163Z,252
2017-07-11T10:01:54.539Z,248
2017-07-11T10:02:55.907Z,184
2017-07-11T10:03:57.295Z,264
2017-07-11T10:04:58.651Z,240
2017-07-11T10:06:00.024Z,244
2017-07-11T10:12:44.077Z,212
2017-07-11T10:13:45.443Z,240
2017-07-11T10:14:46.827Z,204
2017-07-11T10:15:48.198Z,148
2017-07-11T10:16:49.570Z,140
2017-07-11T10:17:50.943Z,144
2017-07-11T10:18:52.311Z,140
2017-07-11T10:19:53.679Z,216
2017-07-11T10:20:55.048Z,220
2017-07-11T10:21:56.418Z,172
2017-07-11T10:22:57.787Z,156
2017-07-11T10:23:59.159Z,144
2017-07-11T10:25:00.524Z,148
2017-07-11T10:26:01.952Z,164
2017-07-11T10:27:03.327Z,248
2017-07-11T10:28:04.697Z,240
2017-07-11T10:29:06.063Z,156
2017-07-11T10:30:07.430Z,148
2017-07-11T10:31:08.799Z,144
2017-07-11T10:32:10.173Z,140
2017-07-11T10:33:11.543Z,152
2017-07-11T10:34:12.909Z,144
2017-07-11T10:35:14.274Z,136
2017-07-11T10:36:15.645Z,136
2017-07-11T10:37:17.017Z,140
2017-07-11T10:38:18.390Z,144
2017-07-11T10:39:19.761Z,152
2017-07-11T10:40:21.121Z,144
2017-07-11T10:41:22.488Z,140
2017-07-11T10:42:23.854Z,136
2017-07-11T10:43:25.229Z,140
2017-07-11T10:44:26.611Z,156
2017-07-11T10:45:28.490Z,216
2017-07-11T10:46:29.873Z,212
2017-07-11T10:47:31.247Z,208
2017-07-11T10:48:32.625Z,204
2017-07-11T10:49:33.987Z,212
2017-07-11T10:50:35.372Z,204
2017-07-11T10:51:36.744Z,152
2017-07-11T10:52:38.129Z,128
2017-07-11T10:53:39.503Z,196
2017-07-11T10:54:40.875Z,212
2017-07-11T10:55:42.250Z,164
2017-07-11T10:56:43.663Z,132
2017-07-11T10:57:45.033Z,124
2017-07-11T10:58:46.415Z,128
2017-07-11T10:59:47.806Z,140
2017-07-11T11:00:49.180Z,152
2017-07-11T11:01:50.562Z,224
2017-07-11T11:02:51.930Z,228
2017-07-11T11:03:53.390Z,216
2017-07-11T11:04:54.759Z,216
2017-07-11T11:05:56.127Z,216
2017-07-11T11:06:57.495Z,160
2017-07-11T11:07:58.878Z,156
2017-07-11T11:09:00.280Z,144
2017-07-11T11:10:01.671Z,164
2017-07-11T11:11:03.045Z,152
2017-07-11T11:12:04.412Z,144
2017-07-11T11:13:05.778Z,156
2017-07-11T11:14:07.149Z,176
2017-07-11T11:15:08.528Z,156
2017-07-11T11:16:09.897Z,148
2017-07-11T11:17:11.267Z,140
2017-07-11T11:18:12.636Z,144
2017-07-11T11:19:14.081Z,156
2017-07-11T11:20:15.458Z,128
2017-07-11T11:21:16.821Z,620
2017-07-11T11:22:18.217Z,528
2017-07-11T11:23:19.691Z,588
2017-07-11T11:24:21.066Z,604
2017-07-11T11:25:22.435Z,560
2017-07-11T11:26:23.829Z,552
2017-07-11T11:27:25.251Z,560
2017-07-11T11:28:26.619Z,588
2017-07-11T11:29:27.990Z,608
2017-07-11T11:30:29.362Z,664
2017-07-11T11:31:30.729Z,652
2017-07-11T11:32:32.093Z,704
2017-07-11T11:33:33.463Z,532
2017-07-11T11:34:34.838Z,568
2017-07-11T11:35:36.224Z,640
2017-07-11T11:36:37.591Z,664
2017-07-11T11:37:38.969Z,552
2017-07-11T11:38:40.333Z,252
2017-07-11T11:39:41.779Z,464
2017-07-11T11:40:43.153Z,524
2017-07-11T11:41:44.526Z,588
2017-07-11T11:42:45.902Z,556
2017-07-11T11:43:47.277Z,532
2017-07-11T11:44:48.654Z,556
2017-07-11T11:45:50.021Z,660
2017-07-11T11:46:51.389Z,648
2017-07-11T11:47:52.778Z,648
2017-07-11T11:48:54.148Z,568
2017-07-11T11:49:55.522Z,624
2017-07-11T11:50:56.891Z,600
2017-07-11T11:51:58.295Z,600
2017-07-11T11:52:59.669Z,572
2017-07-11T11:54:01.036Z,572
2017-07-11T11:55:02.410Z,540
2017-07-11T11:56:03.786Z,480
2017-07-11T11:57:05.163Z,524
2017-07-11T11:58:06.533Z,580
2017-07-11T11:59:07.903Z,636
2017-07-11T12:00:09.297Z,716
2017-07-11T12:01:10.662Z,656
2017-07-11T12:02:12.031Z,644
2017-07-11T12:03:13.398Z,576
2017-07-11T12:04:14.770Z,552
2017-07-11T12:05:16.138Z,540
2017-07-11T12:06:17.506Z,608
2017-07-11T12:07:18.875Z,584
2017-07-11T12:08:20.253Z,588
2017-07-11T12:09:21.628Z,592
2017-07-11T12:10:23.009Z,608
2017-07-11T12:11:24.374Z,596
2017-07-11T12:12:25.756Z,584
2017-07-11T12:13:27.122Z,588
2017-07-11T12:14:28.489Z,540
2017-07-11T12:15:29.863Z,544
2017-07-11T12:16:31.231Z,540
2017-07-11T12:17:32.596Z,492
2017-07-11T12:18:33.970Z,456
2017-07-11T12:19:35.339Z,496
2017-07-11T12:20:36.707Z,564
2017-07-11T12:21:38.077Z,628
2017-07-11T12:22:39.450Z,660
2017-07-11T12:23:40.817Z,652
2017-07-11T12:24:42.182Z,740
2017-07-11T12:25:43.549Z,648
2017-07-11T12:26:44.919Z,636
2017-07-11T12:27:46.289Z,624
2017-07-11T12:28:47.657Z,584
2017-07-11T12:29:49.059Z,628
2017-07-11T12:30:50.420Z,732
2017-07-11T12:31:51.792Z,816
2017-07-11T12:32:53.171Z,836
2017-07-11T12:33:54.537Z,844
2017-07-11T12:34:55.908Z,936
2017-07-11T12:35:57.277Z,896
2017-07-11T12:36:58.652Z,924
2017-07-11T12:38:00.023Z,828
2017-07-11T12:39:01.392Z,800
2017-07-11T12:40:02.770Z,828
2017-07-11T12:41:04.142Z,904
2017-07-11T12:42:05.536Z,912
2017-07-11T12:43:06.911Z,896
2017-07-11T12:44:08.282Z,908
2017-07-11T12:45:09.652Z,936
2017-07-11T12:46:11.025Z,920
2017-07-11T12:47:12.394Z,952
2017-07-11T12:48:13.770Z,884
2017-07-11T12:49:15.137Z,848
2017-07-11T12:50:16.500Z,840
2017-07-11T12:51:17.869Z,860
2017-07-11T12:52:19.239Z,880
2017-07-11T12:53:20.612Z,896
2017-07-11T12:54:22.004Z,940
2017-07-11T12:55:23.378Z,708
2017-07-11T12:56:24.897Z,632
2017-07-11T12:57:26.216Z,692
2017-07-11T12:58:27.589Z,820
2017-07-11T12:59:29.254Z,768
2017-07-11T13:00:30.626Z,688
2017-07-11T13:01:32.007Z,604
2017-07-11T13:02:33.382Z,532
2017-07-11T13:03:35.009Z,500
2017-07-11T13:04:36.260Z,484
2017-07-11T13:05:37.778Z,524
2017-07-11T13:06:39.150Z,628
2017-07-11T13:07:40.661Z,736
2017-07-11T13:08:42.025Z,876
2017-07-11T13:09:43.646Z,888
2017-07-11T13:10:45.012Z,844
2017-07-11T13:11:46.387Z,792
2017-07-11T13:12:47.713Z,796
2017-07-11T13:13:49.091Z,848
2017-07-11T13:14:50.622Z,860
2017-07-11T13:15:51.992Z,876
2017-07-11T13:16:53.370Z,888
2017-07-11T13:17:54.765Z,908
2017-07-11T13:18:56.139Z,928
2017-07-11T13:19:57.509Z,956
2017-07-11T13:20:58.878Z,980
2017-07-11T13:22:00.258Z,1000
2017-07-11T13:23:01.629Z,1020
2017-07-11T13:24:02.993Z,1004
2017-07-11T13:25:04.368Z,1000
2017-07-11T13:26:05.740Z,856
2017-07-11T13:27:07.111Z,728
2017-07-11T13:28:08.484Z,656
2017-07-11T13:29:09.851Z,604
2017-07-11T13:30:11.220Z,560
2017-07-11T13:31:12.593Z,616
2017-07-11T13:32:13.958Z,640
2017-07-11T13:33:15.390Z,688
2017-07-11T13:34:16.781Z,708
2017-07-11T13:35:18.175Z,704
2017-07-11T13:36:19.558Z,672
2017-07-11T13:37:20.925Z,636
2017-07-11T13:38:22.303Z,656
2017-07-11T13:39:23.673Z,696
2017-07-11T13:40:25.041Z,684
2017-07-11T13:41:26.410Z,668
2017-07-11T13:42:27.788Z,684
2017-07-11T13:43:29.160Z,648
2017-07-11T13:44:30.663Z,628
2017-07-11T13:45:32.036Z,684
2017-07-11T13:46:33.408Z,732
2017-07-11T13:47:34.778Z,780
2017-07-11T13:48:36.503Z,772
2017-07-11T13:49:37.964Z,768
2017-07-11T13:50:39.327Z,800
2017-07-11T13:51:40.693Z,840
2017-07-11T13:52:42.069Z,800
2017-07-11T13:53:43.443Z,740
2017-07-11T13:54:44.808Z,656
2017-07-11T13:55:46.181Z,624
2017-07-11T13:56:47.568Z,616
2017-07-11T13:57:48.922Z,584
2017-07-11T13:58:50.307Z,576
2017-07-11T13:59:51.687Z,592
2017-07-11T14:00:53.059Z,572
2017-07-11T14:01:54.463Z,532
2017-07-11T14:02:55.833Z,504
2017-07-11T14:03:57.221Z,512
2017-07-11T14:04:58.586Z,616
2017-07-11T14:05:59.959Z,776
2017-07-11T14:07:01.331Z,860
2017-07-11T14:08:02.785Z,868
2017-07-11T14:09:04.170Z,804
2017-07-11T14:10:05.542Z,756
2017-07-11T14:11:06.926Z,780
2017-07-11T14:12:08.298Z,836
2017-07-11T14:13:09.675Z,840
2017-07-11T14:14:11.118Z,924
2017-07-11T14:15:12.494Z,868
2017-07-11T14:16:13.865Z,908
2017-07-11T14:17:15.241Z,956
2017-07-11T14:18:16.606Z,892
2017-07-11T14:19:17.973Z,812
2017-07-11T14:20:19.354Z,616
2017-07-11T14:21:20.723Z,620
2017-07-11T14:22:22.092Z,612
2017-07-11T14:23:23.467Z,524
2017-07-11T14:24:24.854Z,540
2017-07-11T14:25:26.228Z,536
2017-07-11T14:26:27.613Z,512
2017-07-11T14:27:29.027Z,516
2017-07-11T14:28:30.417Z,404
2017-07-11T14:29:31.783Z,420
2017-07-11T14:30:33.199Z,424
2017-07-11T14:31:34.610Z,444
2017-07-11T14:32:35.991Z,496
2017-07-11T14:33:37.364Z,524
2017-07-11T14:34:38.747Z,544
2017-07-11T14:35:40.186Z,652